Time;durP1;ratioP1;P1;durP2;ratioP2;P2;SDS_P1;SDS_P2;PMS_P1;PMS_P2;Temp;Humidity;BMP_temperature;BMP_pressure;BME280_temperature;BME280_humidity;BME280_pressure;Samples;Min_cycle;Max_cycle;Signal;HPM_P1;HPM_P2
2024/01/30 00:02:27;;;;;;;;;119.00;99.17;;;;;-2.43;100.00;101874.19;6265680;20;4476265;-42
2024/01/30 00:04:56;;;;;;;;;126.00;98.67;;;;;-2.52;100.00;101868.69;6305691;20;3708652;-42
2024/01/30 00:07:26;;;;;;;;;128.67;102.67;;;;;-2.53;100.00;101866.88;6274688;20;3706504;-42
2024/01/30 00:09:56;;;;;;;;;134.00;101.67;;;;;-2.35;100.00;101870.88;6272014;20;3721128;-43
2024/01/30 00:12:26;;;;;;;;;135.67;106.67;;;;;-2.43;100.00;101865.41;6274631;20;3723267;-42
2024/01/30 00:14:56;;;;;;;;;116.67;91.67;;;;;-1.92;100.00;101869.31;6271041;20;3694035;-42
2024/01/30 00:17:26;;;;;;;;;123.00;92.67;;;;;-2.19;100.00;101866.91;6274433;20;3698176;-42
2024/01/30 00:19:56;;;;;;;;;126.67;99.67;;;;;-1.85;100.00;101874.78;6274731;20;3711705;-43
2024/01/30 00:22:26;;;;;;;;;102.00;81.00;;;;;-2.39;100.00;101874.28;6275486;20;2909822;-42
2024/01/30 00:24:55;;;;;;;;;98.33;74.00;;;;;-2.55;100.00;101876.50;6303653;20;2891996;-42
2024/01/30 00:27:27;;;;;;;;;91.00;69.33;;;;;-1.76;100.00;101874.13;6304202;20;2893003;-42
2024/01/30 00:29:57;;;;;;;;;96.00;70.67;;;;;-2.32;100.00;101879.72;6306671;20;3657607;-41
2024/01/30 00:32:27;;;;;;;;;90.33;69.67;;;;;-2.19;100.00;101873.03;6308059;20;3647119;-41
2024/01/30 00:34:56;;;;;;;;;96.67;70.33;;;;;-2.21;100.00;101880.91;6304020;20;3665985;-42
2024/01/30 00:37:26;;;;;;;;;99.67;72.00;;;;;-2.63;100.00;101888.53;6302946;20;3676288;-41
2024/01/30 00:39:56;;;;;;;;;97.67;69.00;;;;;-2.14;100.00;101881.94;6306580;20;3646108;-41
2024/01/30 00:42:25;;;;;;;;;88.00;72.00;;;;;-2.56;100.00;101881.69;6307188;20;2887915;-43
2024/01/30 00:44:55;;;;;;;;;93.00;66.33;;;;;-2.67;100.00;101884.03;6274162;20;3657677;-44
2024/01/30 00:47:25;;;;;;;;;93.00;66.67;;;;;-2.37;100.00;101888.34;6305784;20;2901501;-43
2024/01/30 00:49:54;;;;;;;;;101.33;71.33;;;;;-1.94;100.00;101884.22;6307465;20;3673164;-47
2024/01/30 00:52:24;;;;;;;;;108.33;78.33;;;;;-2.29;100.00;101887.72;6304945;20;3677443;-45
2024/01/30 00:54:54;;;;;;;;;105.33;76.67;;;;;-3.06;100.00;101892.56;6305226;20;3662721;-43
2024/01/30 00:57:24;;;;;;;;;119.33;89.67;;;;;-3.07;100.00;101880.28;6306023;20;3701280;-42
2024/01/30 00:59:53;;;;;;;;;129.00;93.33;;;;;-2.90;100.00;101886.00;6274861;20;3698235;-42
2024/01/30 01:02:23;;;;;;;;;134.33;100.67;;;;;-2.65;100.00;101879.72;6273979;20;3716982;-42
2024/01/30 01:04:53;;;;;;;;;112.67;88.67;;;;;-3.19;100.00;101874.66;6269007;20;3682649;-42
2024/01/30 01:07:23;;;;;;;;;128.00;98.67;;;;;-3.39;100.00;101874.06;6306755;20;3702442;-41
2024/01/30 01:09:53;;;;;;;;;150.00;106.67;;;;;-3.21;100.00;101873.69;6271599;20;3711686;-41
2024/01/30 01:12:22;;;;;;;;;137.33;101.67;;;;;-3.16;100.00;101874.72;6274916;20;3717989;-41
2024/01/30 01:14:52;;;;;;;;;120.67;99.67;;;;;-3.21;100.00;101876.31;6267410;20;3710663;-43
2024/01/30 01:17:22;;;;;;;;;109.67;82.67;;;;;-3.05;100.00;101862.81;6270840;20;3682610;-41
2024/01/30 01:19:51;;;;;;;;;107.67;75.33;;;;;-2.45;100.00;101878.53;6268474;20;3677385;-40
2024/01/30 01:22:22;;;;;;;;;101.67;77.33;;;;;-2.23;100.00;101874.72;6301835;20;3678407;-42
2024/01/30 01:24:52;;;;;;;;;116.33;85.33;;;;;-2.32;100.00;101876.19;6270459;20;3708599;-41
2024/01/30 01:27:22;;;;;;;;;97.33;69.67;;;;;-3.09;100.00;101879.34;6273271;20;3658692;-41
2024/01/30 01:29:52;;;;;;;;;108.67;78.00;;;;;-3.25;100.00;101877.97;6304622;20;3680524;-41
2024/01/30 01:32:22;;;;;;;;;110.33;78.33;;;;;-2.96;100.00;101870.97;6269981;20;3677341;-41
2024/01/30 01:34:52;;;;;;;;;107.33;78.33;;;;;-2.43;100.00;101879.44;6266339;20;3666959;-42
2024/01/30 01:37:22;;;;;;;;;106.67;73.00;;;;;-2.78;100.00;101874.97;6300602;20;3685872;-41
2024/01/30 01:39:52;;;;;;;;;96.67;72.00;;;;;-3.28;100.00;101866.50;6269922;20;2893252;-41
2024/01/30 01:42:22;;;;;;;;;104.67;73.67;;;;;-3.71;100.00;101867.78;6303253;20;3669068;-42
2024/01/30 01:44:52;;;;;;;;;110.00;76.00;;;;;-3.83;100.00;101873.56;6303148;20;3690956;-41
2024/01/30 01:47:21;;;;;;;;;95.33;70.33;;;;;-3.54;100.00;101864.84;6270705;20;3653111;-41
2024/01/30 01:49:51;;;;;;;;;104.33;73.00;;;;;-3.35;100.00;101865.41;6304353;20;3693002;-41
2024/01/30 01:52:20;;;;;;;;;93.67;67.00;;;;;-3.10;100.00;101853.91;6267031;20;2905650;-43
2024/01/30 01:54:49;;;;;;;;;98.00;70.33;;;;;-2.98;100.00;101856.88;6299906;20;3663806;-41
2024/01/30 01:57:19;;;;;;;;;95.33;66.00;;;;;-3.07;100.00;101861.88;6303869;20;2898286;-41
2024/01/30 01:59:49;;;;;;;;;90.67;67.67;;;;;-3.39;100.00;101860.94;6302121;20;3661879;-41
2024/01/30 02:02:19;;;;;;;;;73.00;57.00;;;;;-3.43;100.00;101862.56;6304239;20;2875309;-40
2024/01/30 02:04:49;;;;;;;;;94.67;67.00;;;;;-3.34;100.00;101857.59;6269363;20;3661964;-41
2024/01/30 02:07:21;;;;;;;;;0.67;0.00;;;;;-3.29;100.00;101859.44;6340229;20;2696118;-41
2024/01/30 02:09:50;;;;;;;;;83.00;61.00;;;;;-2.78;100.00;101861.81;6303249;20;2897355;-40
2024/01/30 02:12:20;;;;;;;;;85.67;66.00;;;;;-3.12;100.00;101858.22;6271036;20;2885312;-41
2024/01/30 02:14:50;;;;;;;;;81.33;63.00;;;;;-3.74;100.00;101863.31;6298687;20;2882676;-40
2024/01/30 02:17:18;;;;;;;;;81.00;59.50;;;;;-3.45;100.00;101864.28;6299809;20;2502382;-40
2024/01/30 02:19:47;;;;;;;;;90.67;62.33;;;;;-3.56;100.00;101860.41;6271540;20;3653366;-41
2024/01/30 02:22:18;;;;;;;;;83.00;63.00;;;;;-3.55;100.00;101863.09;6301975;20;2890912;-41
2024/01/30 02:24:46;;;;;;;;;75.00;53.00;;;;;-3.81;100.00;101864.00;6266122;20;2883608;-42
2024/01/30 02:27:16;;;;;;;;;85.67;61.00;;;;;-3.70;100.00;101862.59;6272627;20;3653400;-41
2024/01/30 02:29:45;;;;;;;;;84.67;57.33;;;;;-3.57;100.00;101859.50;6303913;20;2887919;-43
2024/01/30 02:32:15;;;;;;;;;89.00;60.67;;;;;-3.15;100.00;101866.03;6303510;20;2904548;-42
2024/01/30 02:34:44;;;;;;;;;79.00;57.00;;;;;-3.01;100.00;101867.31;6306539;20;2880582;-43
2024/01/30 02:37:13;;;;;;;;;79.00;63.00;;;;;-3.78;100.00;101864.09;6277342;20;2886733;-42
2024/01/30 02:39:42;;;;;;;;;83.67;60.67;;;;;-3.16;100.00;101861.59;6277599;20;2890976;-40
2024/01/30 02:42:12;;;;;;;;;81.67;60.00;;;;;-3.26;100.00;101868.34;6306966;20;2895188;-42
2024/01/30 02:44:41;;;;;;;;;61.67;37.33;;;;;-3.48;100.00;101869.41;6306000;20;3581609;-42
2024/01/30 02:47:10;;;;;;;;;73.33;55.67;;;;;-3.49;100.00;101867.63;6306452;20;2882726;-41
2024/01/30 02:49:39;;;;;;;;;81.50;58.00;;;;;-3.59;100.00;101862.94;6308508;20;2887915;-41
2024/01/30 02:52:08;;;;;;;;;28.67;15.33;;;;;-3.68;100.00;101875.78;6277040;20;2839900;-41
2024/01/30 02:54:38;;;;;;;;;89.33;62.00;;;;;-3.69;100.00;101876.59;6305180;20;2906623;-40
2024/01/30 02:57:08;;;;;;;;;85.67;60.00;;;;;-3.64;100.00;101873.28;6305308;20;2897214;-41
2024/01/30 02:59:37;;;;;;;;;80.50;64.00;;;;;-3.56;100.00;101866.53;6304801;20;2870070;-41
2024/01/30 03:02:05;;;;;;;;;79.00;61.00;;;;;-3.57;100.00;101869.13;6270002;20;2502453;-45
2024/01/30 03:04:34;;;;;;;;;76.50;57.00;;;;;-3.91;100.00;101867.16;6268372;20;2862746;-42
2024/01/30 03:07:02;;;;;;;;;83.50;60.50;;;;;-3.75;100.00;101870.31;6270279;20;2502391;-41
2024/01/30 03:09:30;;;;;;;;;90.67;61.67;;;;;-3.67;100.00;101867.06;6273866;20;3663787;-43
2024/01/30 03:11:58;;;;;;;;;70.00;57.00;;;;;-3.69;100.00;101868.72;6300691;20;2502513;-43
2024/01/30 03:14:31;;;;;;;;;86.33;64.00;;;;;-3.73;100.00;101869.50;6270973;20;2898180;-42
2024/01/30 03:16:59;;;;;;;;;82.00;63.00;;;;;-3.92;100.00;101861.03;6302824;20;2502418;-41
2024/01/30 03:19:29;;;;;;;;;98.67;66.33;;;;;-3.99;100.00;101853.78;6278980;20;3660688;-40
2024/01/30 03:21:59;;;;;;;;;93.00;66.33;;;;;-3.90;100.00;101855.81;6305839;20;2902409;-42
2024/01/30 03:24:29;;;;;;;;;85.67;61.67;;;;;-4.06;100.00;101852.69;6308341;20;2885766;-42
2024/01/30 03:26:57;;;;;;;;;82.50;63.50;;;;;-4.03;100.00;101855.44;6302531;20;2504426;-42
2024/01/30 03:29:26;;;;;;;;;92.33;68.00;;;;;-4.15;100.00;101846.28;6277020;20;2899346;-41
2024/01/30 03:31:55;;;;;;;;;78.33;52.00;;;;;-4.02;100.00;101840.59;6305597;20;2897203;-41
2024/01/30 03:34:25;;;;;;;;;90.67;68.33;;;;;-3.88;100.00;101849.78;6303115;20;2898387;-42
2024/01/30 03:36:55;;;;;;;;;89.33;63.33;;;;;-3.71;100.00;101844.16;6306831;20;3664953;-41
2024/01/30 03:39:25;;;;;;;;;85.33;63.33;;;;;-3.10;100.00;101846.03;6306469;20;3632573;-42
2024/01/30 03:41:54;;;;;;;;;94.33;67.00;;;;;-2.99;100.00;101844.59;6307378;20;2897264;-41
2024/01/30 03:44:23;;;;;;;;;80.50;65.00;;;;;-3.64;100.00;101843.53;6305950;20;2859752;-43
2024/01/30 03:46:51;;;;;;;;;85.00;60.00;;;;;-3.43;100.00;101843.28;6272806;20;2502439;-43
2024/01/30 03:49:21;;;;;;;;;90.00;65.33;;;;;-3.84;100.00;101838.56;6275511;20;3662803;-41
2024/01/30 03:51:48;;;;;;;;;71.50;54.00;;;;;-3.89;100.00;101845.38;6303521;20;2501349;-41
2024/01/30 03:54:18;;;;;;;;;100.00;72.00;;;;;-3.42;100.00;101843.34;6273484;20;3658610;-41
2024/01/30 03:56:48;;;;;;;;;102.33;72.67;;;;;-3.79;100.00;101847.47;6305815;20;3689857;-42
2024/01/30 03:59:22;;;;;;;;;110.67;78.33;;;;;-3.65;100.00;101844.38;6273143;20;3676422;-42
2024/01/30 04:01:52;;;;;;;;;105.00;73.67;;;;;-4.50;100.00;101838.06;6300322;20;3677609;-45
2024/01/30 04:04:23;;;;;;;;;98.67;75.67;;;;;-4.42;100.00;101836.63;6303937;20;3657632;-41
2024/01/30 04:06:52;;;;;;;;;99.67;74.33;;;;;-4.14;100.00;101845.41;6306566;20;3673183;-43
2024/01/30 04:09:22;;;;;;;;;107.67;78.67;;;;;-4.56;100.00;101843.13;6307189;20;3671241;-41
2024/01/30 04:11:52;;;;;;;;;87.00;66.67;;;;;-4.34;100.00;101845.66;6306965;20;2891997;-42
2024/01/30 04:14:20;;;;;;;;;73.00;57.00;;;;;-4.17;100.00;101843.59;6299762;20;2502407;-43
2024/01/30 04:16:48;;;;;;;;;94.80;63.20;;;;;-3.78;100.00;101835.22;6272359;20;3659069;-43
2024/01/30 04:19:17;;;;;;;;;92.20;69.40;;;;;-3.55;100.00;101838.56;6272005;20;3636749;-42
2024/01/30 04:21:47;;;;;;;;;96.67;72.33;;;;;-3.89;100.00;101858.50;6275072;20;3664966;-43
2024/01/30 04:24:18;;;;;;;;;105.00;78.00;;;;;-4.45;100.00;101849.63;6305762;20;3665904;-43
2024/01/30 04:26:48;;;;;;;;;102.67;75.00;;;;;-4.84;100.00;101850.03;6307823;20;3686763;-42
2024/01/30 04:29:17;;;;;;;;;93.67;66.67;;;;;-4.31;100.00;101851.00;6273389;20;3658651;-42
2024/01/30 04:31:47;;;;;;;;;101.67;74.33;;;;;-4.39;100.00;101847.22;6302572;20;3692974;-41
2024/01/30 04:34:17;;;;;;;;;104.67;74.33;;;;;-4.11;100.00;101838.53;6303888;20;3679426;-41
2024/01/30 04:36:46;;;;;;;;;99.33;73.00;;;;;-4.45;100.00;101847.00;6305750;20;3668296;-41
2024/01/30 04:39:15;;;;;;;;;78.33;51.00;;;;;-4.75;100.00;101849.44;6302878;20;3633602;-41
2024/01/30 04:41:44;;;;;;;;;99.20;70.40;;;;;-4.87;100.00;101842.94;6270810;20;3651291;-41
2024/01/30 04:44:13;;;;;;;;;88.20;66.20;;;;;-4.91;100.00;101846.28;6271378;20;3660696;-43
2024/01/30 04:46:43;;;;;;;;;89.00;66.00;;;;;-4.67;100.00;101838.38;6273718;20;3655562;-42
2024/01/30 04:49:12;;;;;;;;;79.00;61.00;;;;;-4.60;100.00;101847.38;6304476;20;2889913;-43
2024/01/30 04:51:42;;;;;;;;;93.00;69.33;;;;;-4.26;100.00;101841.56;6275283;20;3646116;-42
2024/01/30 04:54:11;;;;;;;;;94.00;70.67;;;;;-4.08;100.00;101842.97;6303979;20;3649246;-42
2024/01/30 04:56:41;;;;;;;;;88.00;62.67;;;;;-4.79;100.00;101851.09;6302977;20;3664949;-42
2024/01/30 04:59:11;;;;;;;;;97.00;71.33;;;;;-4.77;100.00;101846.75;6304270;20;2901479;-43
2024/01/30 05:01:41;;;;;;;;;91.67;67.67;;;;;-4.61;100.00;101847.31;6303138;20;2904566;-42
2024/01/30 05:04:11;;;;;;;;;101.67;74.33;;;;;-3.78;100.00;101843.09;6305797;20;3684695;-42
2024/01/30 05:06:46;;;;;;;;;110.67;79.00;;;;;-3.77;100.00;101851.00;6302781;20;3680471;-41
2024/01/30 05:09:14;;;;;;;;;93.67;69.33;;;;;-3.86;100.00;101848.09;6269414;20;2903575;-42
2024/01/30 05:11:44;;;;;;;;;100.00;71.33;;;;;-4.26;100.00;101849.41;6306648;20;3667115;-43
2024/01/30 05:14:15;;;;;;;;;128.33;96.67;;;;;-4.15;100.00;101849.78;6272021;20;3712922;-43
2024/01/30 05:16:46;;;;;;;;;141.17;104.17;;;;;-3.82;100.00;101854.31;6268500;20;4482549;-44
2024/01/30 05:19:17;;;;;;;;;154.67;111.33;;;;;-3.85;100.00;101852.50;6305120;20;3721083;-47
2024/01/30 05:21:47;;;;;;;;;158.50;110.50;;;;;-4.35;100.00;101853.44;6273033;20;3668994;-42
2024/01/30 05:24:17;;;;;;;;;143.83;112.33;;;;;-4.23;100.00;101849.50;6264595;20;4481472;-42
2024/01/30 05:26:51;;;;;;;;;118.00;78.33;;;;;-4.22;100.00;101850.41;6303994;20;3688798;-42
2024/01/30 05:29:20;;;;;;;;;134.67;101.67;;;;;-3.68;100.00;101849.53;6274303;20;3726369;-42
2024/01/30 05:31:50;;;;;;;;;126.00;99.00;;;;;-3.57;100.00;101858.63;6273347;20;3707533;-42
2024/01/30 05:34:20;;;;;;;;;131.00;99.00;;;;;-3.44;100.00;101855.53;6270440;20;3721096;-41
2024/01/30 05:36:50;;;;;;;;;127.33;92.33;;;;;-3.87;100.00;101859.44;6272215;20;3693020;-42
2024/01/30 05:39:19;;;;;;;;;103.00;72.67;;;;;-4.33;100.00;101864.91;6271262;20;3664844;-41
2024/01/30 05:41:49;;;;;;;;;102.67;75.00;;;;;-4.06;100.00;101868.44;6304558;20;3678403;-42
2024/01/30 05:44:19;;;;;;;;;100.67;73.00;;;;;-4.25;100.00;101872.16;6304005;20;3689946;-44
2024/01/30 05:46:49;;;;;;;;;88.83;63.83;;;;;-4.18;100.00;101873.28;6267829;20;3665037;-41
2024/01/30 05:49:19;;;;;;;;;92.67;65.33;;;;;-4.34;100.00;101881.47;6305351;20;3671083;-42
2024/01/30 05:51:49;;;;;;;;;91.00;69.33;;;;;-4.14;100.00;101874.25;6302132;20;3645062;-42
2024/01/30 05:54:18;;;;;;;;;93.33;68.00;;;;;-4.18;100.00;101872.41;6301451;20;3657555;-42
2024/01/30 05:56:48;;;;;;;;;97.33;72.00;;;;;-4.31;100.00;101871.09;6303190;20;3665859;-42
2024/01/30 05:59:18;;;;;;;;;97.67;70.00;;;;;-4.23;100.00;101877.47;6306092;20;3658595;-43
2024/01/30 06:01:48;;;;;;;;;114.67;79.67;;;;;-4.10;100.00;101881.41;6299795;20;3705444;-42
2024/01/30 06:04:18;;;;;;;;;106.33;82.00;;;;;-4.46;100.00;101893.28;6270107;20;3662837;-43
2024/01/30 06:06:48;;;;;;;;;129.67;86.00;;;;;-4.07;100.00;101892.00;6304110;20;3699227;-42
2024/01/30 06:09:18;;;;;;;;;114.67;81.00;;;;;-3.92;100.00;101895.13;6278478;20;3700215;-42
2024/01/30 06:11:47;;;;;;;;;91.67;66.00;;;;;-3.66;100.00;101897.69;6277641;20;3661731;-41
2024/01/30 06:14:17;;;;;;;;;112.00;78.00;;;;;-3.79;100.00;101896.41;6307477;20;3659714;-43
2024/01/30 06:16:47;;;;;;;;;89.00;63.00;;;;;-3.94;100.00;101893.31;6309046;20;3666945;-42
2024/01/30 06:19:16;;;;;;;;;105.00;68.67;;;;;-3.88;100.00;101891.75;6310202;20;3678405;-41
2024/01/30 06:21:46;;;;;;;;;97.33;71.33;;;;;-3.98;100.00;101901.09;6309738;20;3660774;-41
2024/01/30 06:24:16;;;;;;;;;105.33;76.00;;;;;-3.81;100.00;101896.38;6307864;20;3675292;-42
2024/01/30 06:26:46;;;;;;;;;116.33;78.00;;;;;-3.80;100.00;101892.91;6311202;20;3683617;-42
2024/01/30 06:29:16;;;;;;;;;94.17;64.33;;;;;-3.66;100.00;101898.63;6273077;20;3665998;-42
2024/01/30 06:31:48;;;;;;;;;96.67;69.33;;;;;-3.75;100.00;101899.19;6307695;20;3658580;-41
2024/01/30 06:34:18;;;;;;;;;89.33;66.33;;;;;-3.43;100.00;101901.94;6309180;20;2891950;-45
2024/01/30 06:36:48;;;;;;;;;90.33;66.00;;;;;-3.22;100.00;101899.09;6305185;20;3658683;-43
2024/01/30 06:39:18;;;;;;;;;93.33;69.33;;;;;-3.33;100.00;101904.00;6309695;20;2890970;-43
2024/01/30 06:41:47;;;;;;;;;99.67;73.67;;;;;-3.76;100.00;101899.16;6309062;20;3670054;-41
2024/01/30 06:44:17;;;;;;;;;95.00;72.67;;;;;-3.67;100.00;101898.56;6308707;20;2907659;-42
2024/01/30 06:46:47;;;;;;;;;95.33;70.00;;;;;-3.32;100.00;101903.19;6310580;20;3665950;-42
2024/01/30 06:49:16;;;;;;;;;101.33;74.67;;;;;-3.45;100.00;101901.03;6308994;20;3661726;-42
2024/01/30 06:51:46;;;;;;;;;105.33;78.33;;;;;-3.03;100.00;101905.78;6308205;20;3664944;-43
2024/01/30 06:54:16;;;;;;;;;97.67;72.00;;;;;-2.91;100.00;101906.16;6307281;20;3663825;-43
2024/01/30 06:56:45;;;;;;;;;105.00;76.00;;;;;-2.88;100.00;101900.97;6308460;20;3666914;-43
2024/01/30 06:59:15;;;;;;;;;115.67;88.00;;;;;-2.56;100.00;101895.72;6276563;20;3685651;-46
2024/01/30 07:01:45;;;;;;;;;107.00;78.33;;;;;-2.90;100.00;101894.81;6271783;20;3675316;-42
2024/01/30 07:04:15;;;;;;;;;106.00;81.67;;;;;-2.26;100.00;101898.31;6305745;20;3661743;-42
2024/01/30 07:06:45;;;;;;;;;100.67;75.00;;;;;-0.60;100.00;101906.53;6271020;20;3662763;-45
2024/01/30 07:09:15;;;;;;;;;97.00;69.00;;;;;0.98;98.49;101911.81;6310409;20;2895266;-43
2024/01/30 07:11:45;;;;;;;;;110.00;83.00;;;;;0.93;88.19;101910.88;6308907;20;3688841;-44
2024/01/30 07:14:14;;;;;;;;;141.00;116.67;;;;;2.61;80.50;101919.69;6274486;20;3716958;-43
2024/01/30 07:16:44;;;;;;;;;106.67;82.67;;;;;3.55;69.82;101922.81;6274413;20;3705518;-43
2024/01/30 07:19:14;;;;;;;;;123.00;98.67;;;;;3.44;68.31;101926.31;6275833;20;3704452;-47
2024/01/30 07:21:44;;;;;;;;;113.33;90.67;;;;;4.74;66.11;101927.34;6277065;20;3696133;-43
2024/01/30 07:24:13;;;;;;;;;116.00;95.00;;;;;4.55;63.65;101921.19;6276228;20;3703382;-44
2024/01/30 07:26:43;;;;;;;;;114.00;96.00;;;;;4.10;64.68;101926.47;6277429;20;3680466;-43
2024/01/30 07:29:13;;;;;;;;;124.00;103.00;;;;;5.05;61.97;101929.09;6276447;20;3707639;-42
2024/01/30 07:31:43;;;;;;;;;134.50;109.75;;;;;4.58;62.24;101924.75;6276502;20;3712904;-44
2024/01/30 07:34:13;;;;;;;;;103.33;86.67;;;;;6.12;59.09;101926.81;6306877;20;3705496;-44
2024/01/30 07:36:42;;;;;;;;;98.67;75.67;;;;;4.53;62.20;101926.53;6272951;20;3670086;-42
2024/01/30 07:39:12;;;;;;;;;87.67;67.00;;;;;0.60;80.79;101907.75;6308597;20;3629558;-47
2024/01/30 07:41:42;;;;;;;;;98.67;77.67;;;;;-0.59;93.93;101919.75;6308103;20;3660727;-42
2024/01/30 07:44:11;;;;;;;;;99.33;75.67;;;;;-0.21;96.69;101903.78;6273466;20;3670032;-42
2024/01/30 07:46:41;;;;;;;;;115.67;96.33;;;;;-1.39;100.00;101911.88;6308316;20;3693073;-41
2024/01/30 07:49:11;;;;;;;;;102.33;75.33;;;;;-0.65;100.00;101914.34;6275170;20;3680497;-43
2024/01/30 07:51:41;;;;;;;;;101.00;78.33;;;;;-1.11;100.00;101913.38;6273573;20;3661722;-44
2024/01/30 07:54:17;;;;;;;;;109.33;87.00;;;;;-1.04;100.00;101903.84;6304871;20;3688798;-44
2024/01/30 07:56:47;;;;;;;;;102.67;76.33;;;;;-0.86;100.00;101904.25;6276662;20;3669012;-45
2024/01/30 07:59:16;;;;;;;;;118.00;93.67;;;;;-1.30;100.00;101906.78;6305619;20;3680552;-41
2024/01/30 08:01:46;;;;;;;;;97.67;75.67;;;;;-0.56;100.00;101911.00;6273903;20;2888819;-42
2024/01/30 08:04:17;;;;;;;;;106.00;77.67;;;;;-0.23;100.00;101906.38;6306031;20;3668018;-44
2024/01/30 08:06:47;;;;;;;;;105.67;86.33;;;;;-0.63;100.00;101911.72;6275585;20;3679491;-42
2024/01/30 08:09:17;;;;;;;;;219.00;174.00;;;;;-0.94;100.00;101900.56;6275878;20;3698156;-42
2024/01/30 08:11:47;;;;;;;;;103.00;79.33;;;;;-0.50;100.00;101913.75;6277046;20;3683587;-43
2024/01/30 08:14:14;;;;;;;;;93.00;69.50;;;;;-0.46;100.00;101905.94;6268053;20;2500382;-42
2024/01/30 08:16:44;;;;;;;;;98.67;70.33;;;;;-0.41;100.00;101907.78;6274604;20;3649328;-44
2024/01/30 08:19:15;;;;;;;;;104.33;78.33;;;;;0.23;100.00;101906.28;6307078;20;3679427;-42
2024/01/30 08:21:45;;;;;;;;;101.67;79.33;;;;;-0.12;100.00;101901.28;6272839;20;3674302;-43
2024/01/30 08:24:15;;;;;;;;;84.67;65.00;;;;;-0.03;100.00;101900.53;6274274;20;3658615;-42
2024/01/30 08:26:44;;;;;;;;;96.00;69.67;;;;;0.72;100.00;101906.16;6307500;20;3644029;-45
2024/01/30 08:29:14;;;;;;;;;94.67;69.67;;;;;0.11;100.00;101906.09;6307850;20;3637885;-41
2024/01/30 08:31:45;;;;;;;;;90.33;70.67;;;;;0.11;100.00;101903.44;6304563;20;3639906;-43
2024/01/30 08:34:15;;;;;;;;;89.00;70.33;;;;;0.30;100.00;101924.00;6304890;20;3632672;-42
2024/01/30 08:36:45;;;;;;;;;92.67;67.33;;;;;0.47;100.00;101921.63;6307912;20;3660728;-42
2024/01/30 08:39:15;;;;;;;;;87.67;67.00;;;;;0.93;100.00;101918.81;6306332;20;3641949;-43
2024/01/30 08:41:45;;;;;;;;;88.00;63.33;;;;;0.65;100.00;101916.63;6307392;20;3658624;-44
2024/01/30 08:44:15;;;;;;;;;91.33;66.33;;;;;0.86;100.00;101917.81;6307387;20;3657606;-42
2024/01/30 08:46:45;;;;;;;;;85.33;63.67;;;;;0.70;100.00;101916.72;6308850;20;3635722;-43
2024/01/30 08:49:14;;;;;;;;;51.50;39.00;;;;;1.09;100.00;101926.97;6310914;20;2832599;-42
2024/01/30 08:51:43;;;;;;;;;83.00;67.00;;;;;1.26;100.00;101919.25;6274807;20;2879488;-42
2024/01/30 08:54:13;;;;;;;;;81.00;62.67;;;;;0.85;100.00;101922.22;6306694;20;2885723;-43
2024/01/30 08:56:43;;;;;;;;;83.33;63.33;;;;;0.78;100.00;101915.06;6306954;20;3625329;-43
2024/01/30 08:59:12;;;;;;;;;77.33;60.00;;;;;0.99;100.00;101916.22;6305264;20;2888876;-44
2024/01/30 09:01:42;;;;;;;;;90.00;64.00;;;;;1.63;100.00;101914.38;6304849;20;3656546;-42
2024/01/30 09:04:28;;;;;;;;;87.67;64.67;;;;;1.32;100.00;101918.44;6306006;20;3648157;-42
2024/01/30 09:06:58;;;;;;;;;86.00;63.33;;;;;2.51;100.00;101915.19;6307080;20;3655486;-43
2024/01/30 09:09:27;;;;;;;;;87.00;67.00;;;;;1.90;100.00;101919.09;6308772;20;2767052;-41
2024/01/30 09:12:01;;;;;;;;;92.00;67.33;;;;;2.51;100.00;101923.16;6273093;20;3655496;-41
2024/01/30 09:14:31;;;;;;;;;86.33;67.00;;;;;1.88;100.00;101920.81;6306532;20;3627327;-43
2024/01/30 09:17:01;;;;;;;;;88.00;66.33;;;;;2.76;100.00;101919.78;6307850;20;3653376;-43
2024/01/30 09:19:31;;;;;;;;;85.00;65.00;;;;;2.37;100.00;101915.06;6306996;20;3645068;-44
2024/01/30 09:22:01;;;;;;;;;88.33;64.67;;;;;2.73;100.00;101914.44;6303168;20;3660757;-42
2024/01/30 09:24:30;;;;;;;;;77.00;61.33;;;;;2.39;100.00;101915.97;6303695;20;2874228;-43
2024/01/30 09:27:00;;;;;;;;;83.33;60.00;;;;;2.34;100.00;101910.66;6307971;20;3658572;-42
2024/01/30 09:29:29;;;;;;;;;83.00;62.33;;;;;2.10;100.00;101910.44;6305203;20;3636710;-42
2024/01/30 09:32:00;;;;;;;;;82.00;61.00;;;;;2.60;100.00;101917.91;6308570;20;3637742;-43
2024/01/30 09:34:29;;;;;;;;;79.00;60.67;;;;;3.00;100.00;101916.41;6301828;20;2882603;-43
2024/01/30 09:37:00;;;;;;;;;74.00;58.67;;;;;3.28;100.00;101913.88;6306652;20;2874295;-41
2024/01/30 09:39:29;;;;;;;;;78.00;59.00;;;;;3.57;100.00;101911.31;6305558;20;3635685;-44
2024/01/30 09:42:37;;;;;;;;;78.00;62.00;;;;;2.95;100.00;101912.84;6309496;20;3624225;-44
2024/01/30 09:45:07;;;;;;;;;82.00;61.33;;;;;3.09;100.00;101912.91;6313126;20;3632568;-42
2024/01/30 09:47:44;;;;;;;;;79.33;61.33;;;;;2.97;100.00;101915.47;6311758;20;3635689;-45
2024/01/30 09:50:16;;;;;;;;;81.33;61.33;;;;;3.58;100.00;101907.81;6314002;20;3660740;-42
2024/01/30 09:52:47;;;;;;;;;87.33;66.67;;;;;3.68;100.00;101911.34;6311251;20;3643999;-44
2024/01/30 09:55:17;;;;;;;;;80.33;62.00;;;;;3.88;100.00;101906.09;6310564;20;3637744;-44
2024/01/30 09:57:47;;;;;;;;;76.33;58.67;;;;;4.22;97.27;101906.13;6309896;20;3639828;-43
2024/01/30 10:00:16;;;;;;;;;78.50;60.50;;;;;4.04;99.32;101902.56;6307612;20;2868074;-44
2024/01/30 10:02:47;;;;;;;;;93.67;75.00;;;;;4.35;99.93;101903.47;6279582;20;3672158;-43
2024/01/30 10:05:20;;;;;;;;;68.33;53.33;;;;;4.61;95.65;101911.44;6289681;20;3620070;-43
2024/01/30 10:07:58;;;;;;;;;67.33;54.67;;;;;4.51;96.02;101900.81;6309441;20;2873268;-44
2024/01/30 10:10:27;;;;;;;;;69.67;54.67;;;;;4.30;96.65;101905.25;6311588;20;3637790;-42
2024/01/30 10:12:57;;;;;;;;;72.00;56.67;;;;;4.83;94.31;101903.41;6313004;20;2879506;-42
2024/01/30 10:15:29;;;;;;;;;66.50;51.50;;;;;4.98;92.64;101895.38;6312257;20;2870156;-42
2024/01/30 10:17:59;;;;;;;;;72.33;53.67;;;;;4.52;95.15;101898.13;6276435;20;3641958;-43
2024/01/30 10:20:28;;;;;;;;;73.33;54.67;;;;;4.97;93.42;101896.25;6310335;20;2891968;-42
2024/01/30 10:22:57;;;;;;;;;62.00;49.00;;;;;4.24;93.52;101896.34;6309638;20;2862822;-44
2024/01/30 10:25:27;;;;;;;;;66.67;51.00;;;;;4.81;96.18;101891.88;6277905;20;2874304;-42
2024/01/30 10:27:59;;;;;;;;;64.67;52.67;;;;;5.16;93.53;101893.53;6310680;20;2879609;-42
2024/01/30 10:30:28;;;;;;;;;68.33;52.33;;;;;5.06;92.49;101895.38;6309961;20;2880629;-45
2024/01/30 10:32:57;;;;;;;;;56.50;47.50;;;;;5.41;92.52;101892.56;6311679;20;2861735;-44
2024/01/30 10:35:26;;;;;;;;;68.50;54.50;;;;;5.07;93.07;101883.81;6279278;20;2864853;-43
2024/01/30 10:37:58;;;;;;;;;69.00;56.33;;;;;5.14;93.82;101890.91;6279945;20;2880611;-43
2024/01/30 10:40:29;;;;;;;;;60.00;46.33;;;;;5.48;91.23;101888.97;6307834;20;2871262;-44
2024/01/30 10:43:02;;;;;;;;;59.67;45.67;;;;;5.57;91.28;101881.81;6308925;20;2871122;-43
2024/01/30 10:45:35;;;;;;;;;76.00;56.00;;;;;5.69;91.10;101879.09;6307813;20;2785754;-44
2024/01/30 10:48:08;;;;;;;;;66.33;49.67;;;;;4.52;93.08;101874.19;6277428;20;2878536;-45
2024/01/30 10:50:40;;;;;;;;;68.00;52.00;;;;;4.98;93.83;101874.09;6310581;20;3626370;-43
2024/01/30 10:53:19;;;;;;;;;69.00;53.33;;;;;5.45;91.96;101873.00;6307007;20;3636678;-44
2024/01/30 10:55:52;;;;;;;;;60.33;48.67;;;;;5.77;91.28;101866.59;6308483;20;2865866;-44
2024/01/30 10:58:22;;;;;;;;;62.00;50.33;;;;;5.54;90.77;101865.84;6309617;20;2866967;-43
2024/01/30 11:00:52;;;;;;;;;65.00;52.50;;;;;5.63;92.89;101855.13;6308501;20;2859663;-46